createdAt,value
2023-01-30T00:01:32.583Z,3.80
2023-01-30T00:03:59.585Z,3.80
2023-01-30T00:06:26.567Z,3.90
2023-01-30T00:08:53.433Z,3.90
2023-01-30T00:11:20.633Z,3.90
2023-01-30T00:13:50.864Z,4.00
2023-01-30T00:16:18.101Z,4.00
2023-01-30T00:18:45.028Z,4.00
2023-01-30T00:21:13.505Z,3.90
2023-01-30T00:23:40.340Z,3.90
2023-01-30T00:26:07.412Z,3.90
2023-01-30T00:28:34.308Z,3.90
2023-01-30T00:31:01.191Z,3.90
2023-01-30T00:33:28.043Z,3.90
2023-01-30T00:35:55.463Z,3.90
2023-01-30T00:38:22.710Z,4.00
2023-01-30T00:40:49.619Z,4.00
2023-01-30T00:43:36.073Z,4.00
2023-01-30T00:46:45.447Z,4.10
2023-01-30T00:49:12.384Z,4.10
2023-01-30T00:51:39.230Z,4.20
2023-01-30T00:54:06.239Z,4.20
2023-01-30T00:56:32.963Z,4.20
2023-01-30T00:58:59.822Z,4.30
2023-01-30T01:01:26.662Z,4.30
2023-01-30T01:03:53.480Z,4.30
2023-01-30T01:06:20.305Z,4.30
2023-01-30T01:08:47.101Z,4.30
2023-01-30T01:11:24.446Z,4.20
2023-01-30T01:13:58.719Z,4.10
2023-01-30T01:16:25.781Z,4.10
2023-01-30T01:18:52.662Z,4.00
2023-01-30T01:21:20.622Z,4.00
2023-01-30T01:23:58.390Z,4.00
2023-01-30T01:26:25.535Z,3.90
2023-01-30T01:28:58.096Z,3.80
2023-01-30T01:31:25.639Z,3.80
2023-01-30T01:33:52.555Z,3.90
2023-01-30T01:36:42.393Z,3.90
2023-01-30T01:39:06.072Z,3.90
2023-01-30T01:41:32.839Z,3.90
2023-01-30T01:44:10.793Z,3.90
2023-01-30T01:46:42.598Z,4.00
2023-01-30T01:49:33.728Z,4.00
2023-01-30T01:52:00.400Z,4.00
2023-01-30T01:54:34.097Z,4.10
2023-01-30T01:57:03.088Z,4.10
2023-01-30T01:59:54.261Z,4.20
2023-01-30T02:02:20.967Z,4.20
2023-01-30T02:05:02.090Z,4.10
2023-01-30T02:07:49.134Z,4.10
2023-01-30T02:10:28.055Z,4.10
2023-01-30T02:12:54.827Z,4.10
2023-01-30T02:15:21.619Z,4.10
2023-01-30T02:17:48.475Z,4.10
2023-01-30T02:20:27.042Z,4.00
2023-01-30T02:23:19.816Z,3.90
2023-01-30T02:26:08.016Z,3.80
2023-01-30T02:28:43.765Z,3.90
2023-01-30T02:31:25.757Z,3.90
2023-01-30T02:34:26.770Z,3.90
2023-01-30T02:37:23.516Z,3.80
2023-01-30T02:40:14.580Z,3.80
2023-01-30T02:42:56.236Z,3.90
2023-01-30T02:45:24.407Z,3.90
2023-01-30T02:48:02.872Z,4.00
2023-01-30T02:50:33.386Z,4.00
2023-01-30T02:53:00.228Z,4.10
2023-01-30T02:55:28.550Z,4.10
2023-01-30T02:57:56.049Z,4.10
2023-01-30T03:00:42.639Z,4.10
2023-01-30T03:03:18.688Z,4.20
2023-01-30T03:05:57.816Z,4.20
2023-01-30T03:08:24.878Z,4.20
2023-01-30T03:11:04.865Z,4.30
2023-01-30T03:13:54.547Z,4.30
2023-01-30T03:16:23.025Z,4.30
2023-01-30T03:18:49.852Z,4.30
2023-01-30T03:21:16.754Z,4.20
2023-01-30T03:23:46.136Z,4.20
2023-01-30T03:26:17.494Z,4.20
2023-01-30T03:28:45.114Z,4.20
2023-01-30T03:31:12.031Z,4.00
2023-01-30T03:33:38.863Z,3.90
2023-01-30T03:36:05.913Z,3.90
2023-01-30T03:38:33.890Z,4.00
2023-01-30T03:41:00.969Z,4.00
2023-01-30T03:43:27.790Z,4.00
2023-01-30T03:45:54.739Z,4.00
2023-01-30T03:48:21.584Z,4.10
2023-01-30T03:50:48.954Z,4.10
2023-01-30T03:53:15.708Z,4.00
2023-01-30T03:55:43.856Z,4.00
2023-01-30T03:58:10.697Z,4.10
2023-01-30T04:00:37.487Z,4.10
2023-01-30T04:03:04.342Z,4.20
2023-01-30T04:05:31.055Z,4.20
2023-01-30T04:07:58.171Z,4.20
2023-01-30T04:10:25.418Z,4.20
2023-01-30T04:12:52.250Z,4.20
2023-01-30T04:15:19.457Z,4.20
2023-01-30T04:17:47.904Z,4.30
2023-01-30T04:20:14.882Z,4.30
2023-01-30T04:22:41.746Z,4.20
2023-01-30T04:25:09.032Z,4.20
2023-01-30T04:27:35.992Z,4.20
2023-01-30T04:30:03.255Z,4.10
2023-01-30T04:32:30.076Z,4.00
2023-01-30T04:34:56.866Z,4.00
2023-01-30T04:37:23.832Z,4.00
2023-01-30T04:39:50.629Z,4.10
2023-01-30T04:42:17.449Z,4.20
2023-01-30T04:44:44.284Z,4.20
2023-01-30T04:47:11.124Z,4.20
2023-01-30T04:49:37.870Z,4.30
2023-01-30T04:52:04.905Z,4.30
2023-01-30T04:54:31.788Z,4.30
2023-01-30T04:56:58.555Z,4.30
2023-01-30T04:59:25.345Z,4.30
2023-01-30T05:01:52.121Z,4.10
2023-01-30T05:04:18.939Z,4.00
2023-01-30T05:06:45.675Z,4.10
2023-01-30T05:09:12.437Z,4.10
2023-01-30T05:11:39.343Z,4.20
2023-01-30T05:14:06.301Z,4.20
2023-01-30T05:16:33.110Z,4.30
2023-01-30T05:18:59.839Z,4.30
2023-01-30T05:21:28.540Z,4.40
2023-01-30T05:23:56.156Z,4.40
2023-01-30T05:26:23.093Z,4.40
2023-01-30T05:28:56.734Z,4.40
2023-01-30T05:31:23.769Z,4.30
2023-01-30T05:33:52.051Z,4.20
2023-01-30T05:36:19.837Z,4.20
2023-01-30T05:38:46.705Z,4.20
2023-01-30T05:41:14.415Z,4.20
2023-01-30T05:43:41.222Z,4.20
2023-01-30T05:46:08.121Z,4.20
2023-01-30T05:48:34.914Z,4.20
2023-01-30T05:51:01.884Z,4.20
2023-01-30T05:53:31.364Z,4.10
2023-01-30T05:56:05.223Z,4.10
2023-01-30T05:58:32.422Z,4.10
2023-01-30T06:01:03.284Z,4.10
2023-01-30T06:03:30.209Z,3.90
2023-01-30T06:05:57.151Z,3.70
2023-01-30T06:08:23.975Z,3.70
2023-01-30T06:10:50.870Z,3.70
2023-01-30T06:13:17.701Z,3.50
2023-01-30T06:15:44.506Z,3.50
2023-01-30T06:18:11.247Z,3.50
2023-01-30T06:20:38.463Z,3.60
2023-01-30T06:23:05.273Z,3.60
2023-01-30T06:25:32.158Z,3.60
2023-01-30T06:27:58.980Z,3.70
2023-01-30T06:30:25.805Z,3.80
2023-01-30T06:32:52.857Z,3.90
2023-01-30T06:35:20.012Z,3.90
2023-01-30T06:37:47.647Z,4.00
2023-01-30T06:40:14.964Z,4.10
2023-01-30T06:42:48.693Z,4.20
2023-01-30T06:45:16.937Z,4.30
2023-01-30T06:47:51.177Z,4.40
2023-01-30T06:50:19.144Z,4.70
2023-01-30T06:52:47.093Z,5.50
2023-01-30T06:55:16.526Z,6.50
2023-01-30T06:57:43.729Z,7.50
2023-01-30T07:00:12.422Z,8.40
2023-01-30T07:02:39.158Z,8.90
2023-01-30T07:05:06.593Z,9.30
2023-01-30T07:07:33.640Z,9.60
2023-01-30T07:10:07.919Z,10.00
2023-01-30T07:12:36.152Z,10.60
2023-01-30T07:15:03.331Z,11.20
2023-01-30T07:17:30.195Z,11.60
2023-01-30T07:19:57.090Z,11.80
2023-01-30T07:22:23.818Z,12.30
2023-01-30T07:24:50.581Z,12.60
2023-01-30T07:27:17.554Z,12.60
2023-01-30T07:29:44.227Z,12.40
2023-01-30T07:32:15.417Z,12.20
2023-01-30T07:34:42.266Z,12.10
2023-01-30T07:37:09.294Z,12.40
2023-01-30T07:39:36.203Z,12.50
2023-01-30T07:42:03.097Z,12.50
2023-01-30T07:44:30.563Z,12.40
2023-01-30T07:46:57.450Z,12.40
2023-01-30T07:49:24.277Z,12.60
2023-01-30T07:51:50.933Z,12.90
2023-01-30T07:54:17.790Z,12.90
2023-01-30T07:56:44.734Z,12.90
2023-01-30T07:59:11.959Z,13.10
2023-01-30T08:01:38.739Z,13.60
2023-01-30T08:04:05.461Z,14.30
2023-01-30T08:06:32.356Z,14.70
2023-01-30T08:08:59.041Z,14.80
2023-01-30T08:11:25.856Z,14.80
2023-01-30T08:13:53.228Z,15.00
2023-01-30T08:16:19.960Z,15.30
2023-01-30T08:18:46.761Z,15.20
2023-01-30T08:21:13.504Z,15.00
2023-01-30T08:23:40.279Z,14.90
2023-01-30T08:26:07.483Z,15.00
2023-01-30T08:28:34.278Z,14.40
2023-01-30T08:31:01.140Z,14.20
2023-01-30T08:33:27.879Z,14.60
2023-01-30T08:35:54.678Z,14.80
2023-01-30T08:38:21.419Z,15.20
2023-01-30T08:40:50.955Z,15.60
2023-01-30T08:43:17.743Z,15.90
2023-01-30T08:45:44.983Z,16.40
2023-01-30T08:48:11.684Z,17.00
2023-01-30T08:50:38.415Z,17.00
2023-01-30T08:53:09.117Z,17.60
2023-01-30T08:55:35.970Z,18.10
2023-01-30T08:58:02.722Z,18.50
2023-01-30T09:00:29.611Z,18.60
2023-01-30T09:02:57.406Z,18.30
2023-01-30T09:05:24.625Z,17.80
2023-01-30T09:07:51.561Z,17.30
2023-01-30T09:10:18.803Z,16.50
2023-01-30T09:12:46.618Z,15.80
2023-01-30T09:15:13.411Z,15.90
2023-01-30T09:17:40.180Z,16.40
2023-01-30T09:20:08.523Z,16.90
2023-01-30T09:22:35.211Z,17.30
2023-01-30T09:25:02.149Z,17.90
2023-01-30T09:27:28.902Z,17.60
2023-01-30T09:29:55.705Z,18.00
2023-01-30T09:32:22.427Z,18.70
2023-01-30T09:34:49.134Z,18.50
2023-01-30T09:37:15.877Z,18.10
2023-01-30T09:39:42.729Z,18.50
2023-01-30T09:42:25.201Z,19.10
2023-01-30T09:45:24.239Z,19.30
2023-01-30T09:48:04.126Z,19.50
2023-01-30T09:50:37.210Z,19.30
2023-01-30T09:53:29.118Z,18.90
2023-01-30T09:55:57.647Z,18.70
2023-01-30T09:58:24.809Z,18.60
2023-01-30T10:00:57.066Z,18.20
2023-01-30T10:03:35.422Z,18.00
2023-01-30T10:06:20.488Z,18.00
2023-01-30T10:08:57.202Z,17.80
2023-01-30T10:11:47.863Z,17.60
2023-01-30T10:14:33.493Z,16.90
2023-01-30T10:17:27.544Z,17.10
2023-01-30T10:20:29.798Z,17.80
2023-01-30T10:23:20.991Z,17.90
2023-01-30T10:25:50.442Z,18.10
2023-01-30T10:28:34.773Z,18.40
2023-01-30T10:31:10.239Z,18.80
2023-01-30T10:33:45.147Z,19.30
2023-01-30T10:36:18.565Z,19.30
2023-01-30T10:38:50.409Z,19.30
2023-01-30T10:41:29.957Z,19.60
2023-01-30T10:44:05.560Z,19.30
2023-01-30T10:47:02.707Z,19.30
2023-01-30T10:49:50.183Z,18.90
2023-01-30T10:52:27.133Z,18.60
2023-01-30T10:55:06.675Z,17.90
2023-01-30T10:58:04.018Z,17.60
2023-01-30T11:00:40.335Z,17.60
2023-01-30T11:03:19.294Z,17.70
2023-01-30T11:05:46.075Z,18.40
2023-01-30T11:08:20.019Z,18.80
2023-01-30T11:10:46.844Z,18.40
2023-01-30T11:13:21.932Z,17.80
2023-01-30T11:15:50.658Z,17.70
2023-01-30T11:19:17.736Z,17.40
2023-01-30T11:21:10.391Z,17.30
2023-01-30T11:23:41.775Z,17.60
2023-01-30T11:26:12.335Z,18.10
2023-01-30T11:28:43.224Z,18.50
2023-01-30T11:31:40.013Z,18.80
2023-01-30T11:34:13.725Z,18.90
2023-01-30T11:36:40.596Z,17.80
2023-01-30T11:39:13.182Z,16.90
2023-01-30T11:41:43.735Z,15.70
2023-01-30T11:44:10.915Z,14.40
2023-01-30T11:46:39.349Z,13.20
2023-01-30T11:49:45.891Z,12.30
2023-01-30T11:51:59.652Z,11.90
2023-01-30T11:54:31.734Z,11.50
2023-01-30T11:56:58.543Z,11.20
2023-01-30T11:59:36.777Z,11.10
2023-01-30T12:02:30.100Z,11.00
2023-01-30T12:05:05.133Z,11.20
2023-01-30T12:07:36.514Z,11.50
2023-01-30T12:10:23.754Z,11.80
2023-01-30T12:12:55.150Z,12.10
2023-01-30T12:15:31.624Z,12.20
2023-01-30T12:18:04.482Z,12.60
2023-01-30T12:20:48.975Z,12.80
2023-01-30T12:23:21.333Z,12.70
2023-01-30T12:26:00.306Z,12.10
2023-01-30T12:28:35.856Z,11.70
2023-01-30T12:31:26.300Z,11.40
2023-01-30T12:33:55.354Z,10.90
2023-01-30T12:36:27.944Z,10.80
2023-01-30T12:38:58.350Z,10.80
2023-01-30T12:41:44.439Z,10.90
2023-01-30T12:44:31.571Z,11.10
2023-01-30T12:47:24.159Z,11.20
2023-01-30T12:50:06.584Z,11.30
2023-01-30T12:52:56.360Z,11.20
2023-01-30T12:55:36.454Z,10.90
2023-01-30T12:58:38.292Z,10.70
2023-01-30T13:01:25.043Z,10.60
2023-01-30T13:04:22.570Z,10.50
2023-01-30T13:07:00.107Z,10.40
2023-01-30T13:09:39.001Z,10.30
2023-01-30T13:12:14.277Z,10.30
2023-01-30T13:14:56.129Z,10.40
2023-01-30T13:17:28.754Z,10.40
2023-01-30T13:20:05.262Z,10.50
2023-01-30T13:22:53.303Z,10.80
2023-01-30T13:25:41.139Z,11.00
2023-01-30T13:28:19.900Z,11.20
2023-01-30T13:30:46.845Z,11.50
2023-01-30T13:33:15.858Z,11.70
2023-01-30T13:35:47.474Z,12.00
2023-01-30T13:38:22.635Z,12.20
2023-01-30T13:40:50.572Z,12.30
2023-01-30T13:43:23.166Z,12.30
2023-01-30T13:45:50.547Z,12.40
2023-01-30T13:48:26.144Z,12.50
2023-01-30T13:51:02.165Z,12.60
2023-01-30T13:53:58.566Z,12.60
2023-01-30T13:56:46.436Z,12.60
2023-01-30T13:59:50.833Z,12.30
2023-01-30T14:02:22.191Z,12.10
2023-01-30T14:04:56.225Z,11.70
2023-01-30T14:07:39.896Z,11.40
2023-01-30T14:10:09.683Z,11.40
2023-01-30T14:12:44.734Z,11.40
2023-01-30T14:15:14.651Z,11.50
2023-01-30T14:17:57.540Z,11.40
2023-01-30T14:20:25.379Z,11.40
2023-01-30T14:22:53.268Z,11.30
2023-01-30T14:25:23.087Z,11.10
2023-01-30T14:27:52.863Z,11.10
2023-01-30T14:30:31.932Z,11.00
2023-01-30T14:33:00.226Z,11.00
2023-01-30T14:35:33.172Z,10.90
2023-01-30T14:38:11.332Z,10.70
2023-01-30T14:40:39.950Z,10.60
2023-01-30T14:43:12.857Z,10.50
2023-01-30T14:45:58.798Z,10.40
2023-01-30T14:48:38.849Z,10.30
2023-01-30T14:51:19.427Z,10.10
2023-01-30T14:54:02.795Z,10.00
2023-01-30T14:57:01.534Z,9.90
2023-01-30T14:59:31.439Z,9.90
2023-01-30T15:02:13.154Z,9.80
2023-01-30T15:05:23.760Z,9.80
2023-01-30T15:07:53.658Z,9.80
2023-01-30T15:10:48.015Z,9.70
2023-01-30T15:13:38.992Z,9.50
2023-01-30T15:16:20.856Z,9.50
2023-01-30T15:19:14.653Z,9.50
2023-01-30T15:21:44.646Z,9.40
2023-01-30T15:24:14.390Z,9.30
2023-01-30T15:26:55.920Z,9.20
2023-01-30T15:29:34.579Z,9.10
2023-01-30T15:32:02.549Z,9.00
2023-01-30T15:34:34.322Z,8.90
2023-01-30T15:37:01.029Z,8.70
2023-01-30T15:39:28.341Z,8.60
2023-01-30T15:42:06.491Z,8.40
2023-01-30T15:45:12.163Z,8.30
2023-01-30T15:47:45.745Z,8.20
2023-01-30T15:50:12.550Z,7.90
2023-01-30T15:52:48.326Z,7.80
2023-01-30T15:55:43.393Z,7.60
2023-01-30T15:58:15.087Z,7.40
2023-01-30T16:00:46.106Z,7.30
2023-01-30T16:03:14.665Z,7.10
2023-01-30T16:05:58.092Z,7.10
2023-01-30T16:08:29.001Z,7.20
2023-01-30T16:10:56.150Z,7.30
2023-01-30T16:13:23.889Z,7.20
2023-01-30T16:15:50.605Z,7.20
2023-01-30T16:18:33.578Z,7.10
2023-01-30T16:21:05.739Z,7.00
2023-01-30T16:23:52.804Z,7.00
2023-01-30T16:26:21.953Z,7.00
2023-01-30T16:28:49.675Z,7.20
2023-01-30T16:31:16.463Z,7.30
2023-01-30T16:33:49.370Z,7.30
2023-01-30T16:36:21.903Z,7.20
2023-01-30T16:38:49.555Z,7.10
2023-01-30T16:41:35.237Z,7.10
2023-01-30T16:44:08.174Z,7.10
2023-01-30T16:46:46.319Z,7.10
2023-01-30T16:49:17.938Z,7.10
2023-01-30T16:51:44.693Z,6.90
2023-01-30T16:54:25.257Z,6.70
2023-01-30T16:56:54.457Z,6.60
2023-01-30T16:59:28.613Z,6.40
2023-01-30T17:01:55.793Z,6.40
2023-01-30T17:04:23.577Z,6.40
2023-01-30T17:06:59.365Z,6.30
2023-01-30T17:09:36.366Z,6.40
2023-01-30T17:12:31.237Z,6.40
2023-01-30T17:15:10.092Z,6.40
2023-01-30T17:17:36.821Z,6.50
2023-01-30T17:20:03.929Z,6.40
2023-01-30T17:22:30.605Z,6.40
2023-01-30T17:25:01.672Z,6.40
2023-01-30T17:27:28.690Z,6.50
2023-01-30T17:29:55.463Z,6.60
2023-01-30T17:32:22.195Z,6.60
2023-01-30T17:34:48.864Z,6.60
2023-01-30T17:37:23.088Z,6.70
2023-01-30T17:39:49.884Z,6.70
2023-01-30T17:42:22.090Z,6.80
2023-01-30T17:44:49.006Z,6.90
2023-01-30T17:47:16.389Z,7.00
2023-01-30T17:49:43.080Z,7.10
2023-01-30T17:52:10.210Z,7.00
2023-01-30T17:54:37.030Z,7.00
2023-01-30T17:57:05.592Z,6.90
2023-01-30T17:59:32.809Z,6.70
2023-01-30T18:01:59.640Z,6.60
2023-01-30T18:04:26.426Z,6.40
2023-01-30T18:06:54.391Z,6.30
2023-01-30T18:09:22.557Z,6.30
2023-01-30T18:11:49.384Z,6.30
2023-01-30T18:14:16.195Z,6.30
2023-01-30T18:16:43.058Z,6.30
2023-01-30T18:19:12.829Z,6.40
2023-01-30T18:21:40.171Z,6.40
2023-01-30T18:24:07.558Z,6.50
2023-01-30T18:26:34.582Z,6.60
2023-01-30T18:29:01.393Z,6.60
2023-01-30T18:31:30.991Z,6.60
2023-01-30T18:33:58.039Z,6.60
2023-01-30T18:36:24.833Z,6.70
2023-01-30T18:38:53.528Z,6.70
2023-01-30T18:41:21.699Z,6.60
2023-01-30T18:43:58.127Z,6.60
2023-01-30T18:46:25.154Z,6.50
2023-01-30T18:48:53.171Z,6.30
2023-01-30T18:51:24.378Z,6.30
2023-01-30T18:53:52.443Z,6.20
2023-01-30T18:56:30.884Z,6.20
2023-01-30T18:58:58.203Z,6.20
2023-01-30T19:01:26.487Z,6.20
2023-01-30T19:03:57.026Z,6.30
2023-01-30T19:06:23.972Z,6.40
2023-01-30T19:08:50.674Z,6.50
2023-01-30T19:11:37.494Z,6.60
2023-01-30T19:14:04.661Z,6.60
2023-01-30T19:16:32.480Z,6.50
2023-01-30T19:18:59.335Z,6.40
2023-01-30T19:21:26.360Z,6.30
2023-01-30T19:23:53.550Z,6.30
2023-01-30T19:26:21.331Z,6.30
2023-01-30T19:28:48.119Z,6.30
2023-01-30T19:31:16.515Z,6.30
2023-01-30T19:33:44.035Z,6.30
2023-01-30T19:36:14.246Z,6.30
2023-01-30T19:38:41.268Z,6.30
2023-01-30T19:41:14.964Z,6.20
2023-01-30T19:43:42.029Z,6.00
2023-01-30T19:46:10.880Z,6.00
2023-01-30T19:48:40.789Z,6.00
2023-01-30T19:51:14.948Z,6.00
2023-01-30T19:53:42.658Z,6.10
2023-01-30T19:56:09.744Z,6.10
2023-01-30T19:58:39.905Z,6.20
2023-01-30T20:01:10.928Z,6.30
2023-01-30T20:03:37.946Z,6.40
2023-01-30T20:06:13.036Z,6.40
2023-01-30T20:08:40.139Z,6.40
2023-01-30T20:11:08.498Z,6.50
2023-01-30T20:13:39.629Z,6.40
2023-01-30T20:16:07.285Z,6.30
2023-01-30T20:18:35.452Z,6.20
2023-01-30T20:21:12.162Z,6.10
2023-01-30T20:23:39.242Z,6.10
2023-01-30T20:26:07.292Z,6.10
2023-01-30T20:28:34.524Z,6.10
2023-01-30T20:31:03.348Z,6.10
2023-01-30T20:33:31.207Z,6.20
2023-01-30T20:36:02.239Z,6.20
2023-01-30T20:38:35.322Z,6.10
2023-01-30T20:41:11.664Z,5.90
2023-01-30T20:43:39.786Z,5.90
2023-01-30T20:46:08.539Z,5.80
2023-01-30T20:48:35.823Z,5.80
2023-01-30T20:51:09.433Z,5.80
2023-01-30T20:53:37.139Z,5.90
2023-01-30T20:56:04.843Z,5.80
2023-01-30T20:58:31.765Z,5.90
2023-01-30T21:01:09.991Z,5.90
2023-01-30T21:03:37.099Z,5.90
2023-01-30T21:06:04.254Z,5.90
2023-01-30T21:08:31.113Z,6.00
2023-01-30T21:11:24.026Z,5.90
2023-01-30T21:13:50.752Z,5.90
2023-01-30T21:16:22.183Z,5.90
2023-01-30T21:18:50.536Z,5.80
2023-01-30T21:21:25.164Z,5.90
2023-01-30T21:23:53.010Z,6.00
2023-01-30T21:26:20.779Z,6.00
2023-01-30T21:28:47.584Z,6.00
2023-01-30T21:31:16.257Z,5.90
2023-01-30T21:33:43.268Z,5.80
2023-01-30T21:36:10.213Z,5.80
2023-01-30T21:38:55.313Z,5.90
2023-01-30T21:41:45.045Z,6.00
2023-01-30T21:44:12.706Z,6.00
2023-01-30T21:46:41.244Z,6.00
2023-01-30T21:49:08.212Z,6.10
2023-01-30T21:51:35.123Z,6.10
2023-01-30T21:54:03.423Z,5.90
2023-01-30T21:56:30.911Z,5.70
2023-01-30T21:59:00.859Z,5.50
2023-01-30T22:01:27.750Z,5.50
2023-01-30T22:03:55.035Z,5.40
2023-01-30T22:06:21.977Z,5.30
2023-01-30T22:08:48.726Z,5.30
2023-01-30T22:11:16.469Z,5.30
2023-01-30T22:13:43.376Z,5.40
2023-01-30T22:16:11.711Z,5.40
2023-01-30T22:18:38.784Z,5.40
2023-01-30T22:21:13.384Z,5.50
2023-01-30T22:23:41.705Z,5.60
2023-01-30T22:26:08.709Z,5.50
2023-01-30T22:28:36.245Z,5.50
2023-01-30T22:31:05.126Z,5.50
2023-01-30T22:33:31.885Z,5.50
2023-01-30T22:35:58.756Z,5.50
2023-01-30T22:38:26.498Z,5.40
2023-01-30T22:41:04.032Z,5.40
2023-01-30T22:43:31.026Z,5.40
2023-01-30T22:46:00.687Z,5.50
2023-01-30T22:48:28.644Z,5.60
2023-01-30T22:51:08.950Z,5.70
2023-01-30T22:53:37.259Z,5.70
2023-01-30T22:56:05.662Z,5.70
2023-01-30T22:58:32.508Z,5.80
2023-01-30T23:01:19.949Z,5.70
2023-01-30T23:03:47.663Z,5.60
2023-01-30T23:06:15.622Z,5.50
2023-01-30T23:08:43.764Z,5.50
2023-01-30T23:11:16.571Z,5.60
2023-01-30T23:13:44.376Z,5.70
2023-01-30T23:16:11.334Z,5.60
2023-01-30T23:18:56.605Z,5.60
2023-01-30T23:21:27.992Z,5.60
2023-01-30T23:23:56.566Z,5.50
2023-01-30T23:26:24.517Z,5.40
2023-01-30T23:28:51.260Z,5.40
2023-01-30T23:31:25.848Z,5.40
2023-01-30T23:33:54.203Z,5.30
2023-01-30T23:36:21.005Z,5.30
2023-01-30T23:38:51.716Z,5.20
2023-01-30T23:41:30.364Z,5.10
2023-01-30T23:43:57.375Z,5.10
2023-01-30T23:46:42.612Z,4.90
2023-01-30T23:49:11.215Z,4.70
2023-01-30T23:51:39.137Z,4.60
2023-01-30T23:54:06.248Z,4.50
2023-01-30T23:56:35.560Z,4.40
2023-01-30T23:59:02.681Z,4.40
